sensor_id;sensor_type;location;lat;lon;timestamp;pressure;altitude;pressure_sealevel;temperature;humidity
54806;BME280;62866;55.776;37.496;2024-03-06T00:00:25;100967.56;;;-4.46;67.27
54806;BME280;62866;55.776;37.496;2024-03-06T00:02:51;100967.75;;;-4.51;67.02
54806;BME280;62866;55.776;37.496;2024-03-06T00:05:16;100962.66;;;-4.54;67.08
54806;BME280;62866;55.776;37.496;2024-03-06T00:07:42;100968.13;;;-4.60;67.14
54806;BME280;62866;55.776;37.496;2024-03-06T00:10:08;100963.09;;;-4.65;66.97
54806;BME280;62866;55.776;37.496;2024-03-06T00:12:34;100966.78;;;-4.69;66.73
54806;BME280;62866;55.776;37.496;2024-03-06T00:14:59;100968.69;;;-4.74;66.57
54806;BME280;62866;55.776;37.496;2024-03-06T00:17:25;100973.75;;;-4.69;66.93
54806;BME280;62866;55.776;37.496;2024-03-06T00:19:51;100975.41;;;-4.68;66.58
54806;BME280;62866;55.776;37.496;2024-03-06T00:22:16;100968.81;;;-4.77;66.52
54806;BME280;62866;55.776;37.496;2024-03-06T00:24:42;100967.25;;;-4.81;66.47
54806;BME280;62866;55.776;37.496;2024-03-06T00:27:08;100967.47;;;-4.85;66.83
54806;BME280;62866;55.776;37.496;2024-03-06T00:29:34;100970.13;;;-4.87;66.87
54806;BME280;62866;55.776;37.496;2024-03-06T00:32:03;100965.03;;;-4.90;66.64
54806;BME280;62866;55.776;37.496;2024-03-06T00:34:29;100972.84;;;-4.90;66.50
54806;BME280;62866;55.776;37.496;2024-03-06T00:36:54;100979.78;;;-4.89;66.36
54806;BME280;62866;55.776;37.496;2024-03-06T00:39:20;100980.06;;;-4.97;66.68
54806;BME280;62866;55.776;37.496;2024-03-06T00:41:45;100974.97;;;-5.00;66.69
54806;BME280;62866;55.776;37.496;2024-03-06T00:44:11;100975.81;;;-4.99;66.28
54806;BME280;62866;55.776;37.496;2024-03-06T00:46:36;100971.50;;;-5.00;66.81
54806;BME280;62866;55.776;37.496;2024-03-06T00:49:02;100981.25;;;-5.04;66.36
54806;BME280;62866;55.776;37.496;2024-03-06T00:51:28;100976.97;;;-5.06;66.71
54806;BME280;62866;55.776;37.496;2024-03-06T00:53:54;100981.47;;;-5.10;66.35
54806;BME280;62866;55.776;37.496;2024-03-06T00:56:19;100973.63;;;-5.10;66.64
54806;BME280;62866;55.776;37.496;2024-03-06T00:58:44;100980.50;;;-5.07;66.33
54806;BME280;62866;55.776;37.496;2024-03-06T01:01:10;100972.94;;;-5.13;66.33
54806;BME280;62866;55.776;37.496;2024-03-06T01:03:37;100972.66;;;-5.07;66.51
54806;BME280;62866;55.776;37.496;2024-03-06T01:06:03;100959.03;;;-5.14;66.27
54806;BME280;62866;55.776;37.496;2024-03-06T01:08:28;100965.16;;;-5.15;66.45
54806;BME280;62866;55.776;37.496;2024-03-06T01:10:55;100967.66;;;-5.12;66.53
54806;BME280;62866;55.776;37.496;2024-03-06T01:13:21;100946.47;;;-5.26;66.43
54806;BME280;62866;55.776;37.496;2024-03-06T01:15:46;100964.31;;;-5.15;66.30
54806;BME280;62866;55.776;37.496;2024-03-06T01:18:12;100966.81;;;-5.12;66.26
54806;BME280;62866;55.776;37.496;2024-03-06T01:20:37;100935.34;;;-5.29;66.54
54806;BME280;62866;55.776;37.496;2024-03-06T01:23:04;100955.09;;;-5.24;66.69
54806;BME280;62866;55.776;37.496;2024-03-06T01:25:29;100973.28;;;-5.22;66.23
54806;BME280;62866;55.776;37.496;2024-03-06T01:27:55;100968.19;;;-5.25;66.43
54806;BME280;62866;55.776;37.496;2024-03-06T01:30:20;100973.34;;;-5.24;66.22
54806;BME280;62866;55.776;37.496;2024-03-06T01:32:46;100974.25;;;-5.25;66.36
54806;BME280;62866;55.776;37.496;2024-03-06T01:35:11;100967.28;;;-5.24;66.44
54806;BME280;62866;55.776;37.496;2024-03-06T01:37:37;100961.34;;;-5.28;65.87
54806;BME280;62866;55.776;37.496;2024-03-06T01:40:03;100967.28;;;-5.24;66.24
54806;BME280;62866;55.776;37.496;2024-03-06T01:42:34;100964.06;;;-5.31;65.98
54806;BME280;62866;55.776;37.496;2024-03-06T01:44:59;100958.00;;;-5.31;65.94
54806;BME280;62866;55.776;37.496;2024-03-06T01:47:25;100967.41;;;-5.27;66.07
54806;BME280;62866;55.776;37.496;2024-03-06T01:49:50;100969.09;;;-5.26;66.21
54806;BME280;62866;55.776;37.496;2024-03-06T01:52:16;100970.78;;;-5.25;66.18
54806;BME280;62866;55.776;37.496;2024-03-06T01:54:43;100976.00;;;-5.25;65.99
54806;BME280;62866;55.776;37.496;2024-03-06T01:57:11;100985.72;;;-5.29;66.36
54806;BME280;62866;55.776;37.496;2024-03-06T01:59:38;100980.56;;;-5.30;66.16
54806;BME280;62866;55.776;37.496;2024-03-06T02:02:05;100982.19;;;-5.28;66.08
54806;BME280;62866;55.776;37.496;2024-03-06T02:04:32;100989.47;;;-5.36;66.53
54806;BME280;62866;55.776;37.496;2024-03-06T02:06:58;100985.03;;;-5.34;66.19
54806;BME280;62866;55.776;37.496;2024-03-06T02:09:24;100955.19;;;-5.49;66.36
54806;BME280;62866;55.776;37.496;2024-03-06T02:11:49;100981.47;;;-5.31;66.11
54806;BME280;62866;55.776;37.496;2024-03-06T02:14:19;100982.31;;;-5.31;66.08
54806;BME280;62866;55.776;37.496;2024-03-06T02:16:44;100984.91;;;-5.31;65.90
54806;BME280;62866;55.776;37.496;2024-03-06T02:19:10;100986.66;;;-5.31;66.05
54806;BME280;62866;55.776;37.496;2024-03-06T02:21:35;100967.06;;;-5.42;66.19
54806;BME280;62866;55.776;37.496;2024-03-06T02:24:01;100983.97;;;-5.28;65.86
54806;BME280;62866;55.776;37.496;2024-03-06T02:26:26;100984.00;;;-5.30;65.87
54806;BME280;62866;55.776;37.496;2024-03-06T02:28:53;100978.00;;;-5.32;65.90
54806;BME280;62866;55.776;37.496;2024-03-06T02:31:21;100982.47;;;-5.36;65.84
54806;BME280;62866;55.776;37.496;2024-03-06T02:33:48;100980.00;;;-5.39;66.27
54806;BME280;62866;55.776;37.496;2024-03-06T02:36:17;100989.47;;;-5.36;65.90
54806;BME280;62866;55.776;37.496;2024-03-06T02:38:43;100980.16;;;-5.43;65.81
54806;BME280;62866;55.776;37.496;2024-03-06T02:41:09;100985.50;;;-5.46;65.90
54806;BME280;62866;55.776;37.496;2024-03-06T02:43:35;101002.03;;;-5.47;65.88
54806;BME280;62866;55.776;37.496;2024-03-06T02:46:01;100993.44;;;-5.49;65.84
54806;BME280;62866;55.776;37.496;2024-03-06T02:48:27;100996.78;;;-5.46;65.88
54806;BME280;62866;55.776;37.496;2024-03-06T02:50:52;100997.84;;;-5.51;65.78
54806;BME280;62866;55.776;37.496;2024-03-06T02:53:18;101007.59;;;-5.56;65.86
54806;BME280;62866;55.776;37.496;2024-03-06T02:55:43;101005.00;;;-5.56;65.94
54806;BME280;62866;55.776;37.496;2024-03-06T02:58:09;101013.09;;;-5.64;65.72
54806;BME280;62866;55.776;37.496;2024-03-06T03:00:35;101018.25;;;-5.62;65.72
54806;BME280;62866;55.776;37.496;2024-03-06T03:03:00;101022.72;;;-5.66;65.71
54806;BME280;62866;55.776;37.496;2024-03-06T03:05:26;101025.16;;;-5.61;65.53
54806;BME280;62866;55.776;37.496;2024-03-06T03:07:51;101037.25;;;-5.60;65.31
54806;BME280;62866;55.776;37.496;2024-03-06T03:10:18;101039.44;;;-5.71;65.35
54806;BME280;62866;55.776;37.496;2024-03-06T03:12:43;101045.34;;;-5.68;65.38
54806;BME280;62866;55.776;37.496;2024-03-06T03:15:09;101046.16;;;-5.66;65.16
54806;BME280;62866;55.776;37.496;2024-03-06T03:17:35;101039.56;;;-5.76;65.04
54806;BME280;62866;55.776;37.496;2024-03-06T03:20:04;101037.78;;;-5.74;64.89
54806;BME280;62866;55.776;37.496;2024-03-06T03:22:39;101041.31;;;-5.77;64.93
54806;BME280;62866;55.776;37.496;2024-03-06T03:25:09;101044.09;;;-5.81;64.87
54806;BME280;62866;55.776;37.496;2024-03-06T03:27:36;101047.66;;;-5.84;65.00
54806;BME280;62866;55.776;37.496;2024-03-06T03:30:02;101057.19;;;-5.83;64.94
54806;BME280;62866;55.776;37.496;2024-03-06T03:32:28;101056.69;;;-5.92;65.10
54806;BME280;62866;55.776;37.496;2024-03-06T03:34:54;101056.84;;;-5.97;65.12
54806;BME280;62866;55.776;37.496;2024-03-06T03:37:19;101059.34;;;-5.94;65.21
54806;BME280;62866;55.776;37.496;2024-03-06T03:39:45;101046.28;;;-5.92;65.44
54806;BME280;62866;55.776;37.496;2024-03-06T03:42:11;101047.88;;;-5.88;65.03
54806;BME280;62866;55.776;37.496;2024-03-06T03:44:36;101057.22;;;-5.84;65.15
54806;BME280;62866;55.776;37.496;2024-03-06T03:47:02;101029.97;;;-5.97;64.96
54806;BME280;62866;55.776;37.496;2024-03-06T03:49:27;101054.84;;;-5.89;65.06
54806;BME280;62866;55.776;37.496;2024-03-06T03:51:53;101051.66;;;-5.97;64.98
54806;BME280;62866;55.776;37.496;2024-03-06T03:54:18;101049.13;;;-6.00;65.13
54806;BME280;62866;55.776;37.496;2024-03-06T03:56:44;101050.81;;;-5.97;65.10
54806;BME280;62866;55.776;37.496;2024-03-06T03:59:09;101050.75;;;-5.96;65.03
54806;BME280;62866;55.776;37.496;2024-03-06T04:01:35;101044.69;;;-5.96;64.93
54806;BME280;62866;55.776;37.496;2024-03-06T04:04:00;101041.47;;;-6.03;64.68
54806;BME280;62866;55.776;37.496;2024-03-06T04:06:26;101036.06;;;-5.98;64.80
54806;BME280;62866;55.776;37.496;2024-03-06T04:08:51;101039.97;;;-5.87;64.88
54806;BME280;62866;55.776;37.496;2024-03-06T04:11:17;101041.66;;;-5.86;64.68
54806;BME280;62866;55.776;37.496;2024-03-06T04:13:43;101038.16;;;-5.85;64.82
54806;BME280;62866;55.776;37.496;2024-03-06T04:16:08;101039.75;;;-5.81;64.70
54806;BME280;62866;55.776;37.496;2024-03-06T04:18:34;101045.19;;;-5.87;64.86
54806;BME280;62866;55.776;37.496;2024-03-06T04:21:05;101040.84;;;-5.86;64.74
54806;BME280;62866;55.776;37.496;2024-03-06T04:23:32;101048.78;;;-5.89;64.47
54806;BME280;62866;55.776;37.496;2024-03-06T04:26:01;101055.06;;;-5.95;64.26
54806;BME280;62866;55.776;37.496;2024-03-06T04:28:26;101045.84;;;-6.05;64.26
54806;BME280;62866;55.776;37.496;2024-03-06T04:30:52;101052.38;;;-5.93;64.22
54806;BME280;62866;55.776;37.496;2024-03-06T04:33:18;101050.28;;;-5.84;64.00
54806;BME280;62866;55.776;37.496;2024-03-06T04:35:43;101055.19;;;-5.76;64.13
54806;BME280;62866;55.776;37.496;2024-03-06T04:38:09;101037.81;;;-5.76;63.63
54806;BME280;62866;55.776;37.496;2024-03-06T04:40:34;101046.00;;;-5.61;63.16
54806;BME280;62866;55.776;37.496;2024-03-06T04:43:03;101040.22;;;-5.69;63.27
54806;BME280;62866;55.776;37.496;2024-03-06T04:45:28;101050.66;;;-5.69;62.75
54806;BME280;62866;55.776;37.496;2024-03-06T04:47:55;101041.00;;;-5.67;62.90
54806;BME280;62866;55.776;37.496;2024-03-06T04:50:20;101042.69;;;-5.66;62.95
54806;BME280;62866;55.776;37.496;2024-03-06T04:52:46;101053.97;;;-5.66;63.10
54806;BME280;62866;55.776;37.496;2024-03-06T04:55:12;101044.97;;;-5.57;63.01
54806;BME280;62866;55.776;37.496;2024-03-06T04:57:42;101044.97;;;-5.57;63.04
54806;BME280;62866;55.776;37.496;2024-03-06T05:00:08;101034.59;;;-5.59;62.80
54806;BME280;62866;55.776;37.496;2024-03-06T05:02:34;101054.78;;;-5.41;62.73
54806;BME280;62866;55.776;37.496;2024-03-06T05:05:02;101047.06;;;-5.44;62.76
54806;BME280;62866;55.776;37.496;2024-03-06T05:07:29;101042.66;;;-5.42;62.60
54806;BME280;62866;55.776;37.496;2024-03-06T05:09:55;101037.38;;;-5.40;62.24
54806;BME280;62866;55.776;37.496;2024-03-06T05:12:23;101049.28;;;-5.33;62.28
54806;BME280;62866;55.776;37.496;2024-03-06T05:14:49;101019.75;;;-5.33;62.23
54806;BME280;62866;55.776;37.496;2024-03-06T05:17:14;101040.03;;;-5.18;61.90
54806;BME280;62866;55.776;37.496;2024-03-06T05:19:40;101029.50;;;-5.15;61.81
54806;BME280;62866;55.776;37.496;2024-03-06T05:22:05;101043.69;;;-5.01;61.72
54806;BME280;62866;55.776;37.496;2024-03-06T05:24:31;101039.69;;;-4.87;61.37
54806;BME280;62866;55.776;37.496;2024-03-06T05:26:56;101045.09;;;-4.92;60.82
54806;BME280;62866;55.776;37.496;2024-03-06T05:29:22;101049.88;;;-4.81;60.74
54806;BME280;62866;55.776;37.496;2024-03-06T05:31:47;101016.19;;;-4.03;58.77
54806;BME280;62866;55.776;37.496;2024-03-06T05:34:13;101049.94;;;-2.13;56.32
54806;BME280;62866;55.776;37.496;2024-03-06T05:36:38;101029.47;;;-0.92;54.30
54806;BME280;62866;55.776;37.496;2024-03-06T05:39:04;101044.03;;;0.19;52.69
54806;BME280;62866;55.776;37.496;2024-03-06T05:41:39;101048.81;;;0.98;52.26
54806;BME280;62866;55.776;37.496;2024-03-06T05:44:05;101041.91;;;1.09;51.96
54806;BME280;62866;55.776;37.496;2024-03-06T05:46:31;101047.34;;;1.74;51.75
54806;BME280;62866;55.776;37.496;2024-03-06T05:48:57;101056.06;;;2.14;51.34
54806;BME280;62866;55.776;37.496;2024-03-06T05:51:23;101050.59;;;2.43;48.65
54806;BME280;62866;55.776;37.496;2024-03-06T05:53:51;101054.38;;;2.26;48.73
54806;BME280;62866;55.776;37.496;2024-03-06T05:56:17;101054.44;;;1.86;49.88
54806;BME280;62866;55.776;37.496;2024-03-06T05:58:43;101050.25;;;1.97;48.10
54806;BME280;62866;55.776;37.496;2024-03-06T06:01:11;101054.81;;;2.20;47.83
54806;BME280;62866;55.776;37.496;2024-03-06T06:03:36;101041.75;;;3.77;46.12
54806;BME280;62866;55.776;37.496;2024-03-06T06:06:03;101039.53;;;4.96;44.71
54806;BME280;62866;55.776;37.496;2024-03-06T06:08:32;101045.22;;;6.10;43.68
54806;BME280;62866;55.776;37.496;2024-03-06T06:10:57;101039.13;;;5.98;42.67
54806;BME280;62866;55.776;37.496;2024-03-06T06:13:23;101026.44;;;5.38;43.03
54806;BME280;62866;55.776;37.496;2024-03-06T06:15:48;101032.91;;;6.09;41.89
54806;BME280;62866;55.776;37.496;2024-03-06T06:18:14;101022.69;;;5.41;39.28
54806;BME280;62866;55.776;37.496;2024-03-06T06:20:41;101033.22;;;4.19;42.02
54806;BME280;62866;55.776;37.496;2024-03-06T06:23:07;101041.38;;;3.23;41.65
54806;BME280;62866;55.776;37.496;2024-03-06T06:25:34;101049.56;;;2.58;42.77
54806;BME280;62866;55.776;37.496;2024-03-06T06:28:00;101056.28;;;2.11;42.67
54806;BME280;62866;55.776;37.496;2024-03-06T06:30:28;101057.66;;;1.38;42.07
54806;BME280;62866;55.776;37.496;2024-03-06T06:32:54;101049.88;;;0.81;44.17
54806;BME280;62866;55.776;37.496;2024-03-06T06:35:19;101062.28;;;0.51;44.94
54806;BME280;62866;55.776;37.496;2024-03-06T06:37:45;101061.25;;;0.25;45.75
54806;BME280;62866;55.776;37.496;2024-03-06T06:40:11;101058.53;;;0.41;45.39
54806;BME280;62866;55.776;37.496;2024-03-06T06:42:44;101064.53;;;0.43;45.13
54806;BME280;62866;55.776;37.496;2024-03-06T06:45:12;101056.16;;;0.22;45.89
54806;BME280;62866;55.776;37.496;2024-03-06T06:47:38;101058.41;;;0.28;45.85
54806;BME280;62866;55.776;37.496;2024-03-06T06:50:04;101044.38;;;-0.01;46.51
54806;BME280;62866;55.776;37.496;2024-03-06T06:52:30;101050.22;;;0.18;46.19
54806;BME280;62866;55.776;37.496;2024-03-06T06:54:59;101067.97;;;0.15;46.50
54806;BME280;62866;55.776;37.496;2024-03-06T06:57:24;101060.34;;;0.10;46.52
54806;BME280;62866;55.776;37.496;2024-03-06T06:59:50;101067.53;;;0.36;46.70
54806;BME280;62866;55.776;37.496;2024-03-06T07:02:15;101066.03;;;0.47;46.50
54806;BME280;62866;55.776;37.496;2024-03-06T07:04:41;101064.72;;;0.82;46.51
54806;BME280;62866;55.776;37.496;2024-03-06T07:07:06;101061.22;;;0.96;45.76
54806;BME280;62866;55.776;37.496;2024-03-06T07:09:32;101054.72;;;1.16;45.79
54806;BME280;62866;55.776;37.496;2024-03-06T07:11:57;101056.72;;;1.39;45.95
54806;BME280;62866;55.776;37.496;2024-03-06T07:14:23;101064.38;;;1.56;45.53
54806;BME280;62866;55.776;37.496;2024-03-06T07:16:48;101058.78;;;1.61;44.81
54806;BME280;62866;55.776;37.496;2024-03-06T07:19:14;101061.22;;;1.37;44.18
54806;BME280;62866;55.776;37.496;2024-03-06T07:21:39;101060.63;;;1.19;45.05
54806;BME280;62866;55.776;37.496;2024-03-06T07:24:05;101062.84;;;0.98;45.49
54806;BME280;62866;55.776;37.496;2024-03-06T07:26:33;101056.94;;;0.66;45.25
54806;BME280;62866;55.776;37.496;2024-03-06T07:28:59;101061.53;;;0.63;46.34
54806;BME280;62866;55.776;37.496;2024-03-06T07:31:25;101074.22;;;0.70;46.76
54806;BME280;62866;55.776;37.496;2024-03-06T07:33:51;101072.41;;;0.85;46.49
54806;BME280;62866;55.776;37.496;2024-03-06T07:36:16;101064.50;;;1.13;46.42
54806;BME280;62866;55.776;37.496;2024-03-06T07:38:45;101061.53;;;1.32;45.98
54806;BME280;62866;55.776;37.496;2024-03-06T07:41:11;101071.31;;;1.30;45.90
54806;BME280;62866;55.776;37.496;2024-03-06T07:43:37;101076.50;;;1.18;45.71
54806;BME280;62866;55.776;37.496;2024-03-06T07:46:04;101069.72;;;1.28;45.62
54806;BME280;62866;55.776;37.496;2024-03-06T07:48:38;101082.94;;;1.13;45.54
54806;BME280;62866;55.776;37.496;2024-03-06T07:51:04;101090.94;;;1.12;45.35
54806;BME280;62866;55.776;37.496;2024-03-06T07:53:29;101079.38;;;1.00;45.90
54806;BME280;62866;55.776;37.496;2024-03-06T07:55:55;101079.03;;;1.33;46.10
54806;BME280;62866;55.776;37.496;2024-03-06T07:58:20;101088.84;;;1.58;45.27
54806;BME280;62866;55.776;37.496;2024-03-06T08:00:46;101088.25;;;2.07;45.23
54806;BME280;62866;55.776;37.496;2024-03-06T08:03:12;101091.78;;;2.58;44.34
54806;BME280;62866;55.776;37.496;2024-03-06T08:05:39;101087.44;;;2.82;43.20
54806;BME280;62866;55.776;37.496;2024-03-06T08:08:04;101086.50;;;2.71;43.41
54806;BME280;62866;55.776;37.496;2024-03-06T08:10:30;101086.59;;;2.44;43.57
54806;BME280;62866;55.776;37.496;2024-03-06T08:12:56;101093.59;;;2.57;42.50
54806;BME280;62866;55.776;37.496;2024-03-06T08:15:23;101089.28;;;2.04;42.45
54806;BME280;62866;55.776;37.496;2024-03-06T08:17:49;101082.22;;;1.65;43.01
54806;BME280;62866;55.776;37.496;2024-03-06T08:20:15;101087.25;;;1.56;42.48
54806;BME280;62866;55.776;37.496;2024-03-06T08:22:42;101078.91;;;1.49;42.70
54806;BME280;62866;55.776;37.496;2024-03-06T08:25:09;101059.03;;;1.43;41.91
54806;BME280;62866;55.776;37.496;2024-03-06T08:27:36;101085.47;;;1.96;41.41
54806;BME280;62866;55.776;37.496;2024-03-06T08:30:03;101085.09;;;2.14;41.62
54806;BME280;62866;55.776;37.496;2024-03-06T08:32:33;101077.53;;;2.48;41.22
54806;BME280;62866;55.776;37.496;2024-03-06T08:35:02;101080.69;;;2.65;40.25
54806;BME280;62866;55.776;37.496;2024-03-06T08:37:31;101084.47;;;2.87;40.41
54806;BME280;62866;55.776;37.496;2024-03-06T08:39:58;101069.72;;;2.59;39.28
54806;BME280;62866;55.776;37.496;2024-03-06T08:42:24;101086.19;;;2.62;40.63
54806;BME280;62866;55.776;37.496;2024-03-06T08:44:49;101074.13;;;2.46;40.87
54806;BME280;62866;55.776;37.496;2024-03-06T08:47:15;101083.78;;;2.59;41.02
54806;BME280;62866;55.776;37.496;2024-03-06T08:49:40;101081.94;;;2.60;40.08
54806;BME280;62866;55.776;37.496;2024-03-06T08:52:06;101061.66;;;2.60;39.70
54806;BME280;62866;55.776;37.496;2024-03-06T08:54:31;101069.00;;;3.06;39.85
54806;BME280;62866;55.776;37.496;2024-03-06T08:56:57;101047.53;;;3.47;39.30
54806;BME280;62866;55.776;37.496;2024-03-06T08:59:24;101061.78;;;3.92;39.91
54806;BME280;62866;55.776;37.496;2024-03-06T09:01:53;101033.75;;;3.90;39.80
54806;BME280;62866;55.776;37.496;2024-03-06T09:04:20;101057.66;;;3.88;38.66
54806;BME280;62866;55.776;37.496;2024-03-06T09:06:45;101063.84;;;3.65;39.30
54806;BME280;62866;55.776;37.496;2024-03-06T09:09:11;101065.81;;;3.26;38.40
54806;BME280;62866;55.776;37.496;2024-03-06T09:11:40;101063.72;;;3.06;40.06
54806;BME280;62866;55.776;37.496;2024-03-06T09:14:07;101064.06;;;2.89;39.31
54806;BME280;62866;55.776;37.496;2024-03-06T09:16:34;101061.78;;;2.46;39.57
54806;BME280;62866;55.776;37.496;2024-03-06T09:19:00;101060.44;;;2.41;40.69
54806;BME280;62866;55.776;37.496;2024-03-06T09:21:25;101061.34;;;2.52;39.77
54806;BME280;62866;55.776;37.496;2024-03-06T09:23:51;101064.84;;;2.27;39.95
54806;BME280;62866;55.776;37.496;2024-03-06T09:26:17;101050.28;;;2.22;40.10
54806;BME280;62866;55.776;37.496;2024-03-06T09:28:43;101050.91;;;2.38;40.12
54806;BME280;62866;55.776;37.496;2024-03-06T09:31:08;101034.22;;;2.63;39.68
54806;BME280;62866;55.776;37.496;2024-03-06T09:33:34;101037.81;;;2.75;38.89
54806;BME280;62866;55.776;37.496;2024-03-06T09:35:59;101047.28;;;2.77;39.09
54806;BME280;62866;55.776;37.496;2024-03-06T09:38:26;101055.31;;;2.88;39.33
54806;BME280;62866;55.776;37.496;2024-03-06T09:40:55;101028.00;;;2.64;38.56
54806;BME280;62866;55.776;37.496;2024-03-06T09:43:21;101050.78;;;2.52;38.68
54806;BME280;62866;55.776;37.496;2024-03-06T09:45:48;101051.03;;;2.49;39.06
54806;BME280;62866;55.776;37.496;2024-03-06T09:48:17;101047.28;;;2.77;39.64
54806;BME280;62866;55.776;37.496;2024-03-06T09:50:46;101034.22;;;2.76;39.70
54806;BME280;62866;55.776;37.496;2024-03-06T09:53:16;101039.66;;;2.98;39.54
54806;BME280;62866;55.776;37.496;2024-03-06T09:55:42;101033.59;;;2.59;39.28
54806;BME280;62866;55.776;37.496;2024-03-06T09:58:08;101033.72;;;2.58;39.33
54806;BME280;62866;55.776;37.496;2024-03-06T10:00:34;101040.25;;;2.52;39.02
54806;BME280;62866;55.776;37.496;2024-03-06T10:03:02;101027.47;;;2.46;39.31
54806;BME280;62866;55.776;37.496;2024-03-06T10:05:31;101036.72;;;2.90;39.38
54806;BME280;62866;55.776;37.496;2024-03-06T10:08:00;101030.72;;;3.12;38.39
54806;BME280;62866;55.776;37.496;2024-03-06T10:10:26;101032.03;;;3.30;38.62
54806;BME280;62866;55.776;37.496;2024-03-06T10:12:52;101028.06;;;3.48;38.83
54806;BME280;62866;55.776;37.496;2024-03-06T10:15:19;101029.75;;;3.49;37.95
54806;BME280;62866;55.776;37.496;2024-03-06T10:17:45;101026.00;;;3.52;39.05
54806;BME280;62866;55.776;37.496;2024-03-06T10:20:19;101015.16;;;3.43;39.19
54806;BME280;62866;55.776;37.496;2024-03-06T10:22:54;101012.19;;;2.88;38.42
54806;BME280;62866;55.776;37.496;2024-03-06T10:25:20;101019.13;;;2.65;38.79
54806;BME280;62866;55.776;37.496;2024-03-06T10:28:06;101022.19;;;2.59;38.97
54806;BME280;62866;55.776;37.496;2024-03-06T10:30:36;101024.31;;;2.66;39.22
54806;BME280;62866;55.776;37.496;2024-03-06T10:33:03;101017.72;;;2.72;38.66
54806;BME280;62866;55.776;37.496;2024-03-06T10:35:29;101019.00;;;2.54;39.05
54806;BME280;62866;55.776;37.496;2024-03-06T10:37:54;101015.00;;;2.61;38.95
54806;BME280;62866;55.776;37.496;2024-03-06T10:40:22;101021.59;;;2.92;39.16
54806;BME280;62866;55.776;37.496;2024-03-06T10:42:48;101016.22;;;2.81;38.94
54806;BME280;62866;55.776;37.496;2024-03-06T10:45:14;101010.50;;;2.87;38.60
54806;BME280;62866;55.776;37.496;2024-03-06T10:47:41;101006.22;;;3.10;38.44
54806;BME280;62866;55.776;37.496;2024-03-06T10:50:11;101008.81;;;3.22;37.89
54806;BME280;62866;55.776;37.496;2024-03-06T10:52:39;101007.59;;;3.15;37.51
54806;BME280;62866;55.776;37.496;2024-03-06T10:55:06;101004.31;;;3.12;38.28
54806;BME280;62866;55.776;37.496;2024-03-06T10:57:34;101006.22;;;3.10;37.40
54806;BME280;62866;55.776;37.496;2024-03-06T11:00:01;101005.03;;;3.14;37.66
54806;BME280;62866;55.776;37.496;2024-03-06T11:02:28;100996.66;;;3.20;37.47
54806;BME280;62866;55.776;37.496;2024-03-06T11:04:54;100991.63;;;3.40;38.08
54806;BME280;62866;55.776;37.496;2024-03-06T11:07:20;100995.03;;;3.54;38.50
54806;BME280;62866;55.776;37.496;2024-03-06T11:09:46;100991.28;;;3.21;37.57
54806;BME280;62866;55.776;37.496;2024-03-06T11:12:37;100997.03;;;3.02;38.20
54806;BME280;62866;55.776;37.496;2024-03-06T11:15:15;100988.72;;;2.96;38.59
54806;BME280;62866;55.776;37.496;2024-03-06T11:17:42;100967.72;;;2.58;38.49
54806;BME280;62866;55.776;37.496;2024-03-06T11:20:12;100997.78;;;2.55;38.63
54806;BME280;62866;55.776;37.496;2024-03-06T11:28:11;100979.34;;;2.05;39.16
54806;BME280;62866;55.776;37.496;2024-03-06T11:31:00;100990.84;;;2.04;39.52
54806;BME280;62866;55.776;37.496;2024-03-06T11:33:41;100977.53;;;1.92;39.62
54806;BME280;62866;55.776;37.496;2024-03-06T11:36:23;100985.25;;;1.96;39.52
54806;BME280;62866;55.776;37.496;2024-03-06T11:41:23;100976.28;;;2.11;40.19
54806;BME280;62866;55.776;37.496;2024-03-06T11:43:49;100980.19;;;2.18;40.06
54806;BME280;62866;55.776;37.496;2024-03-06T11:46:22;100978.53;;;2.17;40.04
54806;BME280;62866;55.776;37.496;2024-03-06T11:48:54;100976.81;;;2.16;39.96
54806;BME280;62866;55.776;37.496;2024-03-06T11:51:21;100970.91;;;2.00;40.52
54806;BME280;62866;55.776;37.496;2024-03-06T11:53:51;100964.47;;;1.91;40.29
54806;BME280;62866;55.776;37.496;2024-03-06T11:56:19;100949.38;;;2.06;39.98
54806;BME280;62866;55.776;37.496;2024-03-06T11:58:46;100960.38;;;2.25;39.75
54806;BME280;62866;55.776;37.496;2024-03-06T12:01:12;100953.25;;;2.51;39.53
54806;BME280;62866;55.776;37.496;2024-03-06T12:03:38;100943.09;;;2.57;38.96
54806;BME280;62866;55.776;37.496;2024-03-06T12:06:03;100946.69;;;2.56;38.47
54806;BME280;62866;55.776;37.496;2024-03-06T12:08:29;100949.53;;;2.53;38.78
54806;BME280;62866;55.776;37.496;2024-03-06T12:10:55;100944.09;;;2.18;38.12
54806;BME280;62866;55.776;37.496;2024-03-06T12:13:23;100946.00;;;2.16;39.03
54806;BME280;62866;55.776;37.496;2024-03-06T12:15:50;100940.81;;;2.27;39.22
54806;BME280;62866;55.776;37.496;2024-03-06T12:18:17;100939.66;;;2.32;39.19
54806;BME280;62866;55.776;37.496;2024-03-06T12:20:43;100912.13;;;2.23;39.47
54806;BME280;62866;55.776;37.496;2024-03-06T12:23:19;100937.63;;;2.35;37.90
54806;BME280;62866;55.776;37.496;2024-03-06T12:25:46;100928.25;;;2.31;37.30
54806;BME280;62866;55.776;37.496;2024-03-06T12:28:12;100922.53;;;2.50;37.80
54806;BME280;62866;55.776;37.496;2024-03-06T12:30:42;100919.94;;;2.97;36.74
54806;BME280;62866;55.776;37.496;2024-03-06T12:33:08;100918.53;;;3.39;36.00
54806;BME280;62866;55.776;37.496;2024-03-06T12:35:35;100913.72;;;3.33;36.46
54806;BME280;62866;55.776;37.496;2024-03-06T12:38:11;100929.19;;;3.27;35.94
54806;BME280;62866;55.776;37.496;2024-03-06T12:40:37;100908.91;;;3.03;36.55
54806;BME280;62866;55.776;37.496;2024-03-06T12:43:03;100917.72;;;3.15;36.42
54806;BME280;62866;55.776;37.496;2024-03-06T12:45:29;100920.06;;;3.31;36.66
54806;BME280;62866;55.776;37.496;2024-03-06T12:47:54;100919.19;;;3.19;36.74
54806;BME280;62866;55.776;37.496;2024-03-06T12:50:21;100917.31;;;3.32;36.21